createdAt,value
2022-11-01T00:01:53.733Z,14.80
2022-11-01T00:04:20.711Z,15.27
2022-11-01T00:06:47.454Z,15.43
2022-11-01T00:09:13.991Z,15.77
2022-11-01T00:11:40.425Z,16.30
2022-11-01T00:14:07.935Z,16.48
2022-11-01T00:16:34.457Z,16.38
2022-11-01T00:19:00.837Z,16.83
2022-11-01T00:21:27.298Z,16.80
2022-11-01T00:23:53.727Z,17.30
2022-11-01T00:26:22.350Z,17.95
2022-11-01T00:28:49.524Z,16.10
2022-11-01T00:31:17.996Z,18.80
2022-11-01T00:33:44.477Z,19.13
2022-11-01T00:36:10.894Z,19.60
2022-11-01T00:38:37.487Z,17.25
2022-11-01T00:41:04.540Z,17.95
2022-11-01T00:43:35.324Z,17.40
2022-11-01T00:46:02.094Z,16.20
2022-11-01T00:48:29.111Z,17.33
2022-11-01T00:50:55.705Z,15.80
2022-11-01T00:53:22.185Z,16.30
2022-11-01T00:55:48.656Z,14.73
2022-11-01T00:58:15.088Z,16.85
2022-11-01T01:00:41.722Z,15.93
2022-11-01T01:03:08.443Z,17.65
2022-11-01T01:05:35.967Z,16.02
2022-11-01T01:08:03.012Z,15.95
2022-11-01T01:10:29.387Z,15.93
2022-11-01T01:12:56.019Z,16.35
2022-11-01T01:15:22.427Z,16.40
2022-11-01T01:17:48.823Z,17.50
2022-11-01T01:20:15.294Z,16.63
2022-11-01T01:22:42.541Z,15.02
2022-11-01T01:25:10.287Z,15.13
2022-11-01T01:27:36.708Z,14.77
2022-11-01T01:30:05.357Z,14.52
2022-11-01T01:32:31.831Z,13.02
2022-11-01T01:34:58.314Z,14.15
2022-11-01T01:37:24.887Z,13.80
2022-11-01T01:39:51.307Z,15.13
2022-11-01T01:42:23.724Z,13.13
2022-11-01T01:44:55.964Z,13.70
2022-11-01T01:47:31.893Z,13.73
2022-11-01T01:50:15.032Z,13.15
2022-11-01T01:52:51.069Z,12.40
2022-11-01T01:55:26.543Z,12.90
2022-11-01T01:57:55.516Z,12.23
2022-11-01T02:00:22.415Z,11.55
2022-11-01T02:02:48.912Z,11.23
2022-11-01T02:05:29.266Z,11.48
2022-11-01T02:07:56.749Z,13.88
2022-11-01T02:10:23.612Z,12.48
2022-11-01T02:12:50.385Z,13.38
2022-11-01T02:15:18.906Z,11.57
2022-11-01T02:17:57.065Z,12.88
2022-11-01T02:20:49.033Z,13.40
2022-11-01T02:23:30.316Z,14.02
2022-11-01T02:26:19.745Z,11.90
2022-11-01T02:29:03.259Z,12.40
2022-11-01T02:31:56.324Z,12.07
2022-11-01T02:34:29.683Z,11.55
2022-11-01T02:37:20.502Z,11.23
2022-11-01T02:39:54.238Z,12.00
2022-11-01T02:45:11.003Z,11.02
2022-11-01T02:47:40.186Z,10.55
2022-11-01T02:50:10.674Z,12.50
2022-11-01T02:52:39.040Z,11.98
2022-11-01T02:55:29.746Z,12.27
2022-11-01T02:58:04.492Z,12.10
2022-11-01T03:00:35.263Z,11.63
2022-11-01T03:03:16.757Z,11.57
2022-11-01T03:05:54.972Z,13.20
2022-11-01T03:08:29.933Z,11.95
2022-11-01T03:11:17.811Z,11.70
2022-11-01T03:13:50.152Z,11.73
2022-11-01T03:16:34.360Z,11.95
2022-11-01T03:19:18.861Z,12.27
2022-11-01T03:22:02.446Z,12.82
2022-11-01T03:24:33.148Z,13.02
2022-11-01T03:27:34.060Z,13.65
2022-11-01T03:30:18.579Z,13.02
2022-11-01T03:32:47.573Z,12.80
2022-11-01T03:35:19.547Z,13.15
2022-11-01T03:37:48.868Z,13.32
2022-11-01T03:40:17.999Z,12.43
2022-11-01T03:42:48.995Z,11.38
2022-11-01T03:47:54.321Z,11.35
2022-11-01T03:50:24.424Z,11.32
2022-11-01T03:52:51.062Z,12.68
2022-11-01T03:55:19.297Z,10.63
2022-11-01T03:57:51.037Z,12.15
2022-11-01T04:00:23.465Z,13.13
2022-11-01T04:02:51.841Z,11.73
2022-11-01T04:05:19.136Z,11.80
2022-11-01T04:07:45.886Z,11.63
2022-11-01T04:10:13.451Z,11.38
2022-11-01T04:12:40.375Z,12.63
2022-11-01T04:15:26.398Z,12.55
2022-11-01T04:21:22.506Z,11.95
2022-11-01T04:23:49.318Z,12.50
2022-11-01T04:26:21.032Z,12.90
2022-11-01T04:28:59.283Z,12.02
2022-11-01T04:31:30.114Z,8.38
2022-11-01T04:33:57.484Z,8.05
2022-11-01T04:36:24.683Z,8.07
2022-11-01T04:38:52.710Z,7.88
2022-11-01T04:41:19.841Z,8.90
2022-11-01T04:43:47.550Z,8.45
2022-11-01T04:46:14.669Z,8.27
2022-11-01T04:48:41.633Z,8.35
2022-11-01T04:51:09.195Z,7.97
2022-11-01T04:53:36.060Z,7.90
2022-11-01T04:56:04.785Z,7.78
2022-11-01T04:58:31.400Z,8.38
2022-11-01T05:00:57.859Z,8.05
2022-11-01T05:03:25.378Z,8.27
2022-11-01T05:05:52.022Z,9.20
2022-11-01T05:08:18.468Z,8.20
2022-11-01T05:10:45.025Z,8.60
2022-11-01T05:13:13.008Z,9.27
2022-11-01T05:15:39.962Z,8.43
2022-11-01T05:18:14.454Z,7.75
2022-11-01T05:20:40.966Z,7.75
2022-11-01T05:23:07.367Z,9.15
2022-11-01T05:25:37.057Z,8.90
2022-11-01T05:28:11.861Z,10.02
2022-11-01T05:30:38.971Z,10.43
2022-11-01T05:33:07.439Z,10.15
2022-11-01T05:35:35.898Z,10.35
2022-11-01T05:38:04.188Z,10.82
2022-11-01T05:40:31.189Z,10.48
2022-11-01T05:42:58.250Z,11.45
2022-11-01T05:45:24.902Z,11.48
2022-11-01T05:47:51.320Z,10.40
2022-11-01T05:50:18.053Z,11.13
2022-11-01T05:52:44.443Z,10.25
2022-11-01T05:55:11.700Z,11.00
2022-11-01T05:57:38.248Z,10.35
2022-11-01T06:00:06.375Z,10.85
2022-11-01T06:02:33.029Z,10.70
2022-11-01T06:05:02.798Z,10.98
2022-11-01T06:07:29.664Z,11.23
2022-11-01T06:09:56.151Z,10.32
2022-11-01T06:12:25.595Z,10.88
2022-11-01T06:14:52.320Z,10.13
2022-11-01T06:17:19.087Z,9.93
2022-11-01T06:19:45.573Z,9.65
2022-11-01T06:22:12.033Z,10.18
2022-11-01T06:24:38.561Z,9.95
2022-11-01T06:27:08.583Z,9.82
2022-11-01T06:29:36.464Z,9.80
2022-11-01T06:32:04.833Z,8.60
2022-11-01T06:34:31.615Z,8.63
2022-11-01T06:36:58.349Z,9.15
2022-11-01T06:39:24.895Z,8.35
2022-11-01T06:41:51.766Z,9.45
2022-11-01T06:44:18.328Z,9.90
2022-11-01T06:46:44.718Z,9.02
2022-11-01T06:49:16.322Z,10.10
2022-11-01T06:51:45.433Z,9.45
2022-11-01T06:54:11.890Z,9.20
2022-11-01T06:56:38.552Z,9.25
2022-11-01T06:59:05.021Z,8.68
2022-11-01T07:01:31.601Z,9.38
2022-11-01T07:03:58.126Z,9.48
2022-11-01T07:06:28.645Z,8.65
2022-11-01T07:08:55.544Z,9.57
2022-11-01T07:11:25.193Z,9.07
2022-11-01T07:13:53.899Z,9.35
2022-11-01T07:16:20.402Z,9.18
2022-11-01T07:18:46.890Z,8.90
2022-11-01T07:21:13.299Z,7.93
2022-11-01T07:23:39.870Z,9.48
2022-11-01T07:26:06.275Z,8.93
2022-11-01T07:28:32.755Z,8.77
2022-11-01T07:30:59.131Z,9.02
2022-11-01T07:33:25.662Z,9.15
2022-11-01T07:35:52.989Z,11.40
2022-11-01T07:38:19.705Z,9.07
2022-11-01T07:40:49.522Z,8.75
2022-11-01T07:43:17.466Z,8.65
2022-11-01T07:45:44.266Z,9.55
2022-11-01T07:48:13.096Z,10.27
2022-11-01T07:50:41.007Z,17.92
2022-11-01T07:53:13.487Z,9.15
2022-11-01T07:55:40.412Z,12.80
2022-11-01T07:58:07.806Z,8.63
2022-11-01T08:03:10.924Z,9.98
2022-11-01T08:05:38.034Z,8.63
2022-11-01T08:08:06.158Z,8.88
2022-11-01T08:10:33.838Z,8.25
2022-11-01T08:13:05.982Z,8.52
2022-11-01T08:15:33.657Z,7.95
2022-11-01T08:18:01.324Z,7.65
2022-11-01T08:20:28.305Z,7.88
2022-11-01T08:22:54.889Z,7.60
2022-11-01T08:25:21.816Z,6.70
2022-11-01T08:27:48.278Z,7.50
2022-11-01T08:30:17.617Z,6.65
2022-11-01T08:32:44.534Z,6.00
2022-11-01T08:35:13.878Z,6.20
2022-11-01T08:37:53.215Z,6.50
2022-11-01T08:40:20.981Z,6.45
2022-11-01T08:42:47.997Z,5.25
2022-11-01T08:45:15.525Z,5.70
2022-11-01T08:47:42.090Z,5.15
2022-11-01T08:50:11.388Z,5.13
2022-11-01T08:52:38.368Z,4.78
2022-11-01T08:55:05.497Z,4.57
2022-11-01T08:57:32.332Z,4.68
2022-11-01T08:59:59.033Z,4.40
2022-11-01T09:02:26.007Z,4.75
2022-11-01T09:04:52.829Z,3.95
2022-11-01T09:07:19.245Z,4.07
2022-11-01T09:09:46.535Z,3.97
2022-11-01T09:12:14.827Z,3.60
2022-11-01T09:14:41.689Z,3.92
2022-11-01T09:17:08.672Z,4.07
2022-11-01T09:19:35.085Z,4.05
2022-11-01T09:22:01.501Z,3.47
2022-11-01T09:24:27.935Z,3.50
2022-11-01T09:26:54.883Z,3.35
2022-11-01T09:29:21.545Z,3.17
2022-11-01T09:31:52.813Z,3.63
2022-11-01T09:34:20.352Z,3.90
2022-11-01T09:36:47.682Z,3.40
2022-11-01T09:39:16.391Z,3.05
2022-11-01T09:41:47.778Z,2.67
2022-11-01T09:44:25.514Z,3.00
2022-11-01T09:46:59.619Z,2.88
2022-11-01T09:49:33.280Z,3.28
2022-11-01T09:51:59.954Z,2.80
2022-11-01T09:54:28.456Z,2.50
2022-11-01T09:57:34.441Z,2.83
2022-11-01T10:00:07.900Z,2.42
2022-11-01T10:03:05.375Z,2.33
2022-11-01T10:05:39.769Z,2.90
2022-11-01T10:08:24.951Z,2.78
2022-11-01T10:11:27.059Z,3.47
2022-11-01T10:14:31.054Z,2.88
2022-11-01T10:17:06.412Z,2.40
2022-11-01T10:19:35.429Z,2.47
2022-11-01T10:22:13.462Z,2.53
2022-11-01T10:25:01.976Z,2.17
2022-11-01T10:27:53.549Z,2.70
2022-11-01T10:30:20.561Z,2.30
2022-11-01T10:33:02.332Z,2.60
2022-11-01T10:35:33.312Z,2.20
2022-11-01T10:38:49.610Z,3.10
2022-11-01T10:41:29.630Z,2.63
2022-11-01T10:44:02.281Z,2.95
2022-11-01T10:46:37.681Z,2.43
2022-11-01T10:49:10.926Z,3.58
2022-11-01T10:51:37.545Z,2.50
2022-11-01T10:54:11.189Z,2.28
2022-11-01T10:56:43.592Z,2.83
2022-11-01T10:59:20.838Z,2.78
2022-11-01T11:01:50.392Z,2.88
2022-11-01T11:04:21.560Z,2.83
2022-11-01T11:06:48.610Z,2.53
2022-11-01T11:09:19.963Z,2.33
2022-11-01T11:11:48.753Z,2.22
2022-11-01T11:14:17.519Z,2.65
2022-11-01T11:16:49.228Z,2.08
2022-11-01T11:19:34.381Z,3.15
2022-11-01T11:22:05.135Z,2.10
2022-11-01T11:24:33.455Z,2.72
2022-11-01T11:27:02.629Z,2.30
2022-11-01T11:29:36.722Z,2.10
2022-11-01T11:32:05.008Z,2.50
2022-11-01T11:34:38.012Z,2.30
2022-11-01T11:37:07.284Z,2.05
2022-11-01T11:39:36.757Z,2.85
2022-11-01T11:42:17.501Z,2.33
2022-11-01T11:44:52.049Z,2.50
2022-11-01T11:47:36.363Z,2.13
2022-11-01T11:50:19.345Z,2.40
2022-11-01T11:52:49.102Z,2.15
2022-11-01T11:55:36.666Z,2.10
2022-11-01T11:58:05.885Z,2.00
2022-11-01T12:00:37.529Z,2.40
2022-11-01T12:03:07.995Z,2.42
2022-11-01T12:05:34.870Z,2.10
2022-11-01T12:08:01.389Z,2.55
2022-11-01T12:10:34.281Z,2.25
2022-11-01T12:13:03.030Z,2.17
2022-11-01T12:15:38.341Z,2.28
2022-11-01T12:18:16.022Z,1.73
2022-11-01T12:20:47.996Z,2.10
2022-11-01T12:23:33.030Z,2.10
2022-11-01T12:26:04.642Z,1.85
2022-11-01T12:28:47.711Z,2.00
2022-11-01T12:31:17.995Z,2.38
2022-11-01T12:33:55.924Z,2.05
2022-11-01T12:36:30.568Z,1.83
2022-11-01T12:39:10.336Z,1.67
2022-11-01T12:41:44.043Z,1.65
2022-11-01T12:44:20.785Z,1.88
2022-11-01T12:47:19.781Z,1.55
2022-11-01T12:50:07.590Z,2.13
2022-11-01T12:52:47.554Z,1.75
2022-11-01T12:55:32.244Z,1.50
2022-11-01T12:57:59.449Z,1.75
2022-11-01T13:00:36.065Z,2.00
2022-11-01T13:03:18.054Z,1.60
2022-11-01T13:06:05.235Z,1.80
2022-11-01T13:08:47.917Z,1.50
2022-11-01T13:11:42.951Z,2.20
2022-11-01T13:14:12.315Z,1.60
2022-11-01T13:16:45.824Z,2.10
2022-11-01T13:19:47.568Z,2.75
2022-11-01T13:22:18.629Z,2.45
2022-11-01T13:24:57.031Z,1.85
2022-11-01T13:27:32.910Z,2.15
2022-11-01T13:30:15.122Z,1.80
2022-11-01T13:33:06.020Z,2.50
2022-11-01T13:35:57.332Z,1.73
2022-11-01T13:38:30.198Z,3.20
2022-11-01T13:41:07.885Z,1.92
2022-11-01T13:43:41.369Z,1.95
2022-11-01T13:46:23.890Z,1.92
2022-11-01T13:49:08.681Z,2.17
2022-11-01T13:51:35.010Z,2.03
2022-11-01T13:54:03.448Z,1.80
2022-11-01T13:56:50.123Z,2.10
2022-11-01T13:59:45.313Z,1.70
2022-11-01T14:02:24.183Z,2.05
2022-11-01T14:05:10.780Z,1.85
2022-11-01T14:07:44.604Z,1.70
2022-11-01T14:10:16.975Z,1.77
2022-11-01T14:12:48.309Z,1.90
2022-11-01T14:15:27.508Z,2.30
2022-11-01T14:17:57.912Z,1.52
2022-11-01T14:20:28.023Z,1.63
2022-11-01T14:22:56.269Z,1.83
2022-11-01T14:25:22.615Z,2.15
2022-11-01T14:27:52.067Z,1.98
2022-11-01T14:30:22.027Z,1.55
2022-11-01T14:33:03.174Z,1.92
2022-11-01T14:35:37.402Z,1.70
2022-11-01T14:38:10.076Z,1.95
2022-11-01T14:40:48.708Z,2.10
2022-11-01T14:43:22.944Z,1.75
2022-11-01T14:46:04.961Z,1.60
2022-11-01T14:48:53.326Z,2.55
2022-11-01T14:51:28.302Z,2.38
2022-11-01T14:54:20.170Z,2.63
2022-11-01T14:56:54.990Z,2.60
2022-11-01T14:59:29.244Z,3.03
2022-11-01T15:02:02.927Z,2.95
2022-11-01T15:04:42.241Z,3.95
2022-11-01T15:07:19.830Z,1.33
2022-11-01T15:10:02.821Z,2.20
2022-11-01T15:12:35.834Z,1.70
2022-11-01T15:15:02.875Z,1.42
2022-11-01T15:17:33.080Z,1.70
2022-11-01T15:20:03.207Z,1.60
2022-11-01T15:22:33.712Z,2.08
2022-11-01T15:25:05.510Z,1.50
2022-11-01T15:27:42.084Z,2.03
2022-11-01T15:30:24.643Z,1.67
2022-11-01T15:32:53.952Z,1.70
2022-11-01T15:35:26.028Z,1.20
2022-11-01T15:37:54.465Z,3.35
2022-11-01T15:40:27.864Z,3.03
2022-11-01T15:43:02.326Z,2.00
2022-11-01T15:45:31.080Z,2.03
2022-11-01T15:48:06.020Z,1.70
2022-11-01T15:50:36.834Z,5.53
2022-11-01T15:53:10.149Z,1.50
2022-11-01T15:58:15.793Z,3.10
2022-11-01T16:00:46.306Z,3.63
2022-11-01T16:03:27.518Z,1.88
2022-11-01T16:05:59.789Z,4.13
2022-11-01T16:08:35.261Z,2.92
2022-11-01T16:11:02.234Z,2.30
2022-11-01T16:13:31.081Z,2.50
2022-11-01T16:16:10.935Z,2.30
2022-11-01T16:18:40.506Z,2.13
2022-11-01T16:21:28.265Z,1.80
2022-11-01T16:24:03.985Z,2.33
2022-11-01T16:26:33.401Z,2.17
2022-11-01T16:28:59.804Z,1.60
2022-11-01T16:31:28.885Z,1.98
2022-11-01T16:33:57.026Z,2.15
2022-11-01T16:36:33.118Z,1.67
2022-11-01T16:38:59.529Z,1.58
2022-11-01T16:41:39.704Z,1.88
2022-11-01T16:44:16.006Z,2.22
2022-11-01T16:46:42.699Z,2.00
2022-11-01T16:49:21.067Z,2.78
2022-11-01T16:51:47.646Z,3.35
2022-11-01T16:54:14.127Z,2.53
2022-11-01T16:56:44.630Z,2.75
2022-11-01T16:59:34.321Z,2.90
2022-11-01T17:02:02.492Z,2.90
2022-11-01T17:04:29.621Z,1.77
2022-11-01T17:06:58.769Z,1.92
2022-11-01T17:09:29.286Z,1.95
2022-11-01T17:11:55.847Z,5.45
2022-11-01T17:14:22.390Z,2.15
2022-11-01T17:16:51.353Z,2.47
2022-11-01T17:19:32.033Z,4.20
2022-11-01T17:22:05.576Z,3.20
2022-11-01T17:24:33.337Z,2.70
2022-11-01T17:27:04.987Z,2.55
2022-11-01T17:29:33.043Z,4.00
2022-11-01T17:32:00.999Z,2.85
2022-11-01T17:34:28.868Z,2.75
2022-11-01T17:36:57.252Z,3.33
2022-11-01T17:39:29.184Z,2.53
2022-11-01T17:41:56.167Z,1.83
2022-11-01T17:44:23.155Z,1.95
2022-11-01T17:46:49.607Z,5.45
2022-11-01T17:49:16.747Z,3.20
2022-11-01T17:51:43.280Z,2.55
2022-11-01T17:54:10.631Z,2.28
2022-11-01T17:56:37.204Z,1.30
2022-11-01T17:59:03.813Z,2.03
2022-11-01T18:01:30.469Z,2.40
2022-11-01T18:03:56.990Z,2.30
2022-11-01T18:06:23.878Z,1.95
2022-11-01T18:08:51.546Z,3.53
2022-11-01T18:11:39.490Z,2.40
2022-11-01T18:14:19.919Z,2.42
2022-11-01T18:16:49.228Z,2.55
2022-11-01T18:19:34.960Z,7.63
2022-11-01T18:22:13.027Z,1.80
2022-11-01T18:24:46.590Z,1.48
2022-11-01T18:27:13.734Z,1.98
2022-11-01T18:29:45.072Z,1.50
2022-11-01T18:32:23.101Z,1.58
2022-11-01T18:35:03.422Z,2.30
2022-11-01T18:37:47.078Z,1.90
2022-11-01T18:40:23.162Z,1.52
2022-11-01T18:42:51.257Z,2.13
2022-11-01T18:45:31.027Z,2.17
2022-11-01T18:48:12.879Z,1.48
2022-11-01T18:50:39.384Z,2.20
2022-11-01T18:53:05.924Z,1.90
2022-11-01T18:55:33.353Z,2.13
2022-11-01T18:58:13.647Z,1.58
2022-11-01T19:00:40.927Z,1.70
2022-11-01T19:03:15.256Z,1.65
2022-11-01T19:05:41.946Z,2.28
2022-11-01T19:08:22.617Z,5.10
2022-11-01T19:10:49.538Z,2.58
2022-11-01T19:13:34.145Z,2.78
2022-11-01T19:16:01.950Z,2.50
2022-11-01T19:18:28.882Z,2.42
2022-11-01T19:20:57.980Z,3.47
2022-11-01T19:23:40.315Z,2.60
2022-11-01T19:26:25.808Z,2.90
2022-11-01T19:28:53.323Z,2.75
2022-11-01T19:31:39.273Z,2.67
2022-11-01T19:34:13.573Z,1.90
2022-11-01T19:36:44.507Z,1.85
2022-11-01T19:39:24.756Z,1.52
2022-11-01T19:41:53.142Z,7.75
2022-11-01T19:44:22.497Z,3.15
2022-11-01T19:46:52.257Z,1.90
2022-11-01T19:49:25.235Z,2.00
2022-11-01T19:52:12.220Z,2.30
2022-11-01T19:54:41.475Z,2.72
2022-11-01T19:57:28.439Z,2.42
2022-11-01T20:00:14.819Z,2.33
2022-11-01T20:02:41.333Z,1.90
2022-11-01T20:05:25.583Z,2.20
2022-11-01T20:08:00.532Z,2.20
2022-11-01T20:10:27.323Z,2.13
2022-11-01T20:12:53.727Z,1.95
2022-11-01T20:15:20.118Z,1.50
2022-11-01T20:17:46.616Z,1.80
2022-11-01T20:20:14.456Z,1.75
2022-11-01T20:22:42.043Z,2.28
2022-11-01T20:25:10.301Z,2.20
2022-11-01T20:27:36.688Z,2.47
2022-11-01T20:30:03.603Z,1.58
2022-11-01T20:32:30.142Z,1.90
2022-11-01T20:34:57.747Z,2.30
2022-11-01T20:37:29.055Z,4.05
2022-11-01T20:39:55.966Z,1.77
2022-11-01T20:42:22.853Z,2.08
2022-11-01T20:44:49.990Z,1.70
2022-11-01T20:47:16.414Z,3.35
2022-11-01T20:49:42.864Z,2.75
2022-11-01T20:52:33.746Z,2.20
2022-11-01T20:54:55.658Z,1.52
2022-11-01T20:57:28.031Z,2.13
2022-11-01T20:59:55.660Z,1.77
2022-11-01T21:02:22.588Z,2.08
2022-11-01T21:04:59.576Z,2.55
2022-11-01T21:07:29.999Z,1.70
2022-11-01T21:09:56.928Z,2.30
2022-11-01T21:12:49.591Z,2.15
2022-11-01T21:15:28.367Z,2.03
2022-11-01T21:18:22.993Z,2.20
2022-11-01T21:20:49.622Z,2.35
2022-11-01T21:23:32.262Z,3.22
2022-11-01T21:26:10.642Z,2.65
2022-11-01T21:28:47.737Z,2.00
2022-11-01T21:31:14.023Z,2.03
2022-11-01T21:33:51.110Z,2.13
2022-11-01T21:36:20.483Z,1.90
2022-11-01T21:39:11.083Z,2.28
2022-11-01T21:41:45.923Z,3.03
2022-11-01T21:44:18.126Z,1.63
2022-11-01T21:46:53.760Z,2.00
2022-11-01T21:49:38.211Z,1.90
2022-11-01T21:52:07.075Z,2.38
2022-11-01T21:54:35.577Z,2.45
2022-11-01T21:57:03.137Z,1.88
2022-11-01T21:59:30.211Z,2.55
2022-11-01T22:01:57.975Z,1.98
2022-11-01T22:04:28.492Z,2.53
2022-11-01T22:06:56.554Z,2.22
2022-11-01T22:09:23.273Z,2.40
2022-11-01T22:11:49.730Z,2.53
2022-11-01T22:14:16.103Z,2.25
2022-11-01T22:16:42.517Z,2.03
2022-11-01T22:19:09.329Z,2.22
2022-11-01T22:21:35.864Z,2.20
2022-11-01T22:24:03.358Z,2.78
2022-11-01T22:26:29.775Z,2.30
2022-11-01T22:28:56.223Z,2.75
2022-11-01T22:31:23.256Z,2.05
2022-11-01T22:33:54.852Z,2.25
2022-11-01T22:36:25.274Z,2.60
2022-11-01T22:39:01.100Z,2.38
2022-11-01T22:41:32.726Z,2.20
2022-11-01T22:44:04.403Z,2.08
2022-11-01T22:46:43.591Z,1.90
2022-11-01T22:49:22.445Z,1.98
2022-11-01T22:51:59.888Z,2.58
2022-11-01T22:54:38.920Z,1.80
2022-11-01T22:57:08.264Z,2.55
2022-11-01T23:00:00.742Z,1.95
2022-11-01T23:02:30.088Z,1.90
2022-11-01T23:05:02.625Z,2.20
2022-11-01T23:07:34.738Z,2.15
2022-11-01T23:10:07.103Z,2.00
2022-11-01T23:12:54.816Z,1.85
2022-11-01T23:15:30.060Z,2.08
2022-11-01T23:18:12.954Z,2.28
2022-11-01T23:20:40.722Z,2.03
2022-11-01T23:23:18.550Z,1.70
2022-11-01T23:25:45.166Z,2.17
2022-11-01T23:28:12.982Z,1.70
2022-11-01T23:30:41.716Z,2.15
2022-11-01T23:33:17.411Z,2.33
2022-11-01T23:35:52.019Z,1.65
2022-11-01T23:38:22.814Z,1.70
2022-11-01T23:40:53.268Z,1.75
2022-11-01T23:43:36.060Z,1.90
2022-11-01T23:46:02.553Z,1.80
2022-11-01T23:48:29.266Z,2.50
2022-11-01T23:50:56.550Z,3.13
2022-11-01T23:53:31.987Z,1.77
2022-11-01T23:56:00.018Z,2.42
